sensor_id;sensor_type;location;lat;lon;timestamp;temperature;humidity
24148;DHT22;12309;51.450;-2.624;2022-09-20T00:02:17;15.00;99.90
24148;DHT22;12309;51.450;-2.624;2022-09-20T00:04:42;13.80;99.90
24148;DHT22;12309;51.450;-2.624;2022-09-20T00:07:08;13.90;99.90
24148;DHT22;12309;51.450;-2.624;2022-09-20T00:09:34;13.80;99.90
24148;DHT22;12309;51.450;-2.624;2022-09-20T00:11:59;13.90;99.90
24148;DHT22;12309;51.450;-2.624;2022-09-20T00:14:25;13.90;99.90
24148;DHT22;12309;51.450;-2.624;2022-09-20T00:16:51;13.90;99.90
24148;DHT22;12309;51.450;-2.624;2022-09-20T00:19:19;14.00;99.90
24148;DHT22;12309;51.450;-2.624;2022-09-20T00:21:45;14.00;99.90
24148;DHT22;12309;51.450;-2.624;2022-09-20T00:24:11;14.00;99.90
24148;DHT22;12309;51.450;-2.624;2022-09-20T00:26:37;14.00;99.90
24148;DHT22;12309;51.450;-2.624;2022-09-20T00:29:03;14.00;99.90
24148;DHT22;12309;51.450;-2.624;2022-09-20T00:31:29;14.00;99.90
24148;DHT22;12309;51.450;-2.624;2022-09-20T00:33:55;13.90;99.90
24148;DHT22;12309;51.450;-2.624;2022-09-20T00:36:40;14.00;99.90
24148;DHT22;12309;51.450;-2.624;2022-09-20T00:39:06;14.00;99.90
24148;DHT22;12309;51.450;-2.624;2022-09-20T00:41:32;14.10;99.90
24148;DHT22;12309;51.450;-2.624;2022-09-20T00:43:58;14.10;99.90
24148;DHT22;12309;51.450;-2.624;2022-09-20T00:46:26;14.10;99.90
24148;DHT22;12309;51.450;-2.624;2022-09-20T00:49:17;14.10;99.90
24148;DHT22;12309;51.450;-2.624;2022-09-20T00:51:47;14.10;99.90
24148;DHT22;12309;51.450;-2.624;2022-09-20T00:54:15;14.20;99.90
24148;DHT22;12309;51.450;-2.624;2022-09-20T00:56:42;14.10;99.90
24148;DHT22;12309;51.450;-2.624;2022-09-20T00:59:21;14.20;99.90
24148;DHT22;12309;51.450;-2.624;2022-09-20T01:01:58;14.10;99.90
24148;DHT22;12309;51.450;-2.624;2022-09-20T01:04:25;14.10;99.90
24148;DHT22;12309;51.450;-2.624;2022-09-20T01:06:53;14.10;99.90
24148;DHT22;12309;51.450;-2.624;2022-09-20T01:09:20;14.10;99.90
24148;DHT22;12309;51.450;-2.624;2022-09-20T01:11:47;14.10;99.90
24148;DHT22;12309;51.450;-2.624;2022-09-20T01:14:14;14.00;99.90
24148;DHT22;12309;51.450;-2.624;2022-09-20T01:16:41;14.10;99.90
24148;DHT22;12309;51.450;-2.624;2022-09-20T01:19:27;14.10;99.90
24148;DHT22;12309;51.450;-2.624;2022-09-20T01:21:54;14.10;99.90
24148;DHT22;12309;51.450;-2.624;2022-09-20T01:24:26;14.10;99.90
24148;DHT22;12309;51.450;-2.624;2022-09-20T01:29:49;14.10;99.90
24148;DHT22;12309;51.450;-2.624;2022-09-20T01:32:21;14.10;99.90
24148;DHT22;12309;51.450;-2.624;2022-09-20T01:34:56;14.10;99.90
24148;DHT22;12309;51.450;-2.624;2022-09-20T01:37:32;14.10;99.90
24148;DHT22;12309;51.450;-2.624;2022-09-20T01:45:31;14.20;99.90
24148;DHT22;12309;51.450;-2.624;2022-09-20T01:56:35;14.20;99.90
24148;DHT22;12309;51.450;-2.624;2022-09-20T02:12:55;13.90;99.90
24148;DHT22;12309;51.450;-2.624;2022-09-20T02:26:56;13.80;99.90
24148;DHT22;12309;51.450;-2.624;2022-09-20T02:35:03;13.70;99.90
24148;DHT22;12309;51.450;-2.624;2022-09-20T02:40:31;13.70;99.90
24148;DHT22;12309;51.450;-2.624;2022-09-20T02:43:57;13.60;99.90
24148;DHT22;12309;51.450;-2.624;2022-09-20T02:47:04;13.60;99.90
24148;DHT22;12309;51.450;-2.624;2022-09-20T02:49:09;13.60;99.90
24148;DHT22;12309;51.450;-2.624;2022-09-20T02:51:42;13.50;99.90
24148;DHT22;12309;51.450;-2.624;2022-09-20T02:57:01;13.40;99.90
24148;DHT22;12309;51.450;-2.624;2022-09-20T02:59:49;13.30;99.90
24148;DHT22;12309;51.450;-2.624;2022-09-20T03:02:39;13.30;99.90
24148;DHT22;12309;51.450;-2.624;2022-09-20T03:05:33;13.20;99.90
24148;DHT22;12309;51.450;-2.624;2022-09-20T03:18:32;12.80;99.90
24148;DHT22;12309;51.450;-2.624;2022-09-20T03:24:07;12.70;99.90
24148;DHT22;12309;51.450;-2.624;2022-09-20T03:27:01;12.70;99.90
24148;DHT22;12309;51.450;-2.624;2022-09-20T03:51:31;12.30;99.90
24148;DHT22;12309;51.450;-2.624;2022-09-20T03:54:15;12.30;99.90
24148;DHT22;12309;51.450;-2.624;2022-09-20T03:57:15;12.20;99.90
24148;DHT22;12309;51.450;-2.624;2022-09-20T03:59:47;12.20;99.90
24148;DHT22;12309;51.450;-2.624;2022-09-20T04:11:09;12.10;99.90
24148;DHT22;12309;51.450;-2.624;2022-09-20T04:19:45;12.10;99.90
24148;DHT22;12309;51.450;-2.624;2022-09-20T04:22:13;12.00;99.90
24148;DHT22;12309;51.450;-2.624;2022-09-20T04:24:55;12.00;99.90
24148;DHT22;12309;51.450;-2.624;2022-09-20T04:27:32;11.90;99.90
24148;DHT22;12309;51.450;-2.624;2022-09-20T04:32:36;11.80;99.90
24148;DHT22;12309;51.450;-2.624;2022-09-20T04:35:35;11.70;99.90
24148;DHT22;12309;51.450;-2.624;2022-09-20T04:38:41;11.40;99.90
24148;DHT22;12309;51.450;-2.624;2022-09-20T04:41:11;11.60;99.90
24148;DHT22;12309;51.450;-2.624;2022-09-20T04:59:50;11.50;99.90
24148;DHT22;12309;51.450;-2.624;2022-09-20T05:05:34;11.50;99.90
24148;DHT22;12309;51.450;-2.624;2022-09-20T05:13:54;11.50;99.90
24148;DHT22;12309;51.450;-2.624;2022-09-20T05:29:58;11.20;99.90
24148;DHT22;12309;51.450;-2.624;2022-09-20T05:38:09;11.30;99.90
24148;DHT22;12309;51.450;-2.624;2022-09-20T05:43:28;11.20;99.90
24148;DHT22;12309;51.450;-2.624;2022-09-20T05:46:17;11.30;99.90
24148;DHT22;12309;51.450;-2.624;2022-09-20T05:54:30;11.40;99.90
24148;DHT22;12309;51.450;-2.624;2022-09-20T05:57:32;11.40;99.90
24148;DHT22;12309;51.450;-2.624;2022-09-20T06:17:26;11.30;99.90
24148;DHT22;12309;51.450;-2.624;2022-09-20T06:20:21;11.30;99.90
24148;DHT22;12309;51.450;-2.624;2022-09-20T06:22:54;11.30;99.90
24148;DHT22;12309;51.450;-2.624;2022-09-20T06:25:44;11.40;99.90
24148;DHT22;12309;51.450;-2.624;2022-09-20T06:28:31;11.40;99.90
24148;DHT22;12309;51.450;-2.624;2022-09-20T06:30:58;11.50;99.90
24148;DHT22;12309;51.450;-2.624;2022-09-20T06:33:25;11.50;99.90
24148;DHT22;12309;51.450;-2.624;2022-09-20T06:42:18;11.80;99.90
24148;DHT22;12309;51.450;-2.624;2022-09-20T06:44:43;11.90;99.90
24148;DHT22;12309;51.450;-2.624;2022-09-20T06:47:10;11.90;99.90
24148;DHT22;12309;51.450;-2.624;2022-09-20T06:49:36;11.90;99.90
24148;DHT22;12309;51.450;-2.624;2022-09-20T06:52:06;12.00;99.90
24148;DHT22;12309;51.450;-2.624;2022-09-20T06:54:32;12.00;99.90
24148;DHT22;12309;51.450;-2.624;2022-09-20T06:57:00;12.00;99.90
24148;DHT22;12309;51.450;-2.624;2022-09-20T06:59:27;12.10;99.90
24148;DHT22;12309;51.450;-2.624;2022-09-20T07:01:53;12.20;99.90
24148;DHT22;12309;51.450;-2.624;2022-09-20T07:04:19;12.30;99.90
24148;DHT22;12309;51.450;-2.624;2022-09-20T07:06:46;12.40;99.90
24148;DHT22;12309;51.450;-2.624;2022-09-20T07:09:12;12.40;99.90
24148;DHT22;12309;51.450;-2.624;2022-09-20T07:11:38;12.50;99.90
24148;DHT22;12309;51.450;-2.624;2022-09-20T07:14:03;12.60;99.90
24148;DHT22;12309;51.450;-2.624;2022-09-20T07:16:31;12.80;99.90
24148;DHT22;12309;51.450;-2.624;2022-09-20T07:18:57;12.90;99.90
24148;DHT22;12309;51.450;-2.624;2022-09-20T07:21:22;13.00;99.90
24148;DHT22;12309;51.450;-2.624;2022-09-20T07:23:48;13.10;99.90
24148;DHT22;12309;51.450;-2.624;2022-09-20T07:26:34;13.20;99.90
24148;DHT22;12309;51.450;-2.624;2022-09-20T07:29:00;13.30;99.90
24148;DHT22;12309;51.450;-2.624;2022-09-20T07:31:27;13.40;99.90
24148;DHT22;12309;51.450;-2.624;2022-09-20T07:33:53;13.40;99.90
24148;DHT22;12309;51.450;-2.624;2022-09-20T07:36:20;13.40;99.90
24148;DHT22;12309;51.450;-2.624;2022-09-20T07:38:48;13.50;99.90
24148;DHT22;12309;51.450;-2.624;2022-09-20T07:41:14;13.60;99.90
24148;DHT22;12309;51.450;-2.624;2022-09-20T07:43:41;13.60;99.90
24148;DHT22;12309;51.450;-2.624;2022-09-20T07:46:07;13.50;99.90
24148;DHT22;12309;51.450;-2.624;2022-09-20T07:48:35;13.50;99.90
24148;DHT22;12309;51.450;-2.624;2022-09-20T07:51:04;13.60;99.90
24148;DHT22;12309;51.450;-2.624;2022-09-20T07:53:30;13.60;99.90
24148;DHT22;12309;51.450;-2.624;2022-09-20T07:58:22;13.80;99.90
24148;DHT22;12309;51.450;-2.624;2022-09-20T08:00:53;13.90;99.90
24148;DHT22;12309;51.450;-2.624;2022-09-20T08:03:18;13.90;99.90
24148;DHT22;12309;51.450;-2.624;2022-09-20T08:05:44;14.00;99.90
24148;DHT22;12309;51.450;-2.624;2022-09-20T08:08:10;14.00;99.90
24148;DHT22;12309;51.450;-2.624;2022-09-20T08:10:36;14.10;99.90
24148;DHT22;12309;51.450;-2.624;2022-09-20T08:13:06;14.30;99.90
24148;DHT22;12309;51.450;-2.624;2022-09-20T08:15:31;14.40;99.90
24148;DHT22;12309;51.450;-2.624;2022-09-20T08:17:57;14.60;99.90
24148;DHT22;12309;51.450;-2.624;2022-09-20T08:20:22;14.80;99.90
24148;DHT22;12309;51.450;-2.624;2022-09-20T08:22:48;15.10;99.90
24148;DHT22;12309;51.450;-2.624;2022-09-20T08:25:14;15.20;99.90
24148;DHT22;12309;51.450;-2.624;2022-09-20T08:27:42;15.50;99.90
24148;DHT22;12309;51.450;-2.624;2022-09-20T08:30:08;15.90;99.90
24148;DHT22;12309;51.450;-2.624;2022-09-20T08:32:37;16.40;99.90
24148;DHT22;12309;51.450;-2.624;2022-09-20T08:35:03;16.60;99.90
24148;DHT22;12309;51.450;-2.624;2022-09-20T08:39:54;16.70;99.90
24148;DHT22;12309;51.450;-2.624;2022-09-20T08:42:27;16.70;99.90
24148;DHT22;12309;51.450;-2.624;2022-09-20T08:45:02;16.70;99.90
24148;DHT22;12309;51.450;-2.624;2022-09-20T08:47:31;16.70;99.90
24148;DHT22;12309;51.450;-2.624;2022-09-20T08:49:59;16.50;99.90
24148;DHT22;12309;51.450;-2.624;2022-09-20T08:52:35;15.80;99.90
24148;DHT22;12309;51.450;-2.624;2022-09-20T08:55:24;16.60;99.90
24148;DHT22;12309;51.450;-2.624;2022-09-20T08:57:54;16.50;99.90
24148;DHT22;12309;51.450;-2.624;2022-09-20T09:00:27;16.60;99.90
24148;DHT22;12309;51.450;-2.624;2022-09-20T09:02:56;16.70;99.90
24148;DHT22;12309;51.450;-2.624;2022-09-20T09:07:58;17.30;99.90
24148;DHT22;12309;51.450;-2.624;2022-09-20T09:10:33;17.80;99.90
24148;DHT22;12309;51.450;-2.624;2022-09-20T09:13:00;18.20;99.90
24148;DHT22;12309;51.450;-2.624;2022-09-20T09:15:30;18.10;99.90
24148;DHT22;12309;51.450;-2.624;2022-09-20T09:17:57;18.70;99.90
24148;DHT22;12309;51.450;-2.624;2022-09-20T09:20:23;18.80;99.90
24148;DHT22;12309;51.450;-2.624;2022-09-20T09:23:04;18.90;99.90
24148;DHT22;12309;51.450;-2.624;2022-09-20T09:25:34;18.30;99.90
24148;DHT22;12309;51.450;-2.624;2022-09-20T09:28:12;19.30;99.90
24148;DHT22;12309;51.450;-2.624;2022-09-20T09:30:43;19.40;99.90
24148;DHT22;12309;51.450;-2.624;2022-09-20T09:33:23;19.50;99.90
24148;DHT22;12309;51.450;-2.624;2022-09-20T09:38:25;19.30;99.90
24148;DHT22;12309;51.450;-2.624;2022-09-20T09:43:32;19.30;99.90
24148;DHT22;12309;51.450;-2.624;2022-09-20T09:46:23;19.20;99.90
24148;DHT22;12309;51.450;-2.624;2022-09-20T09:49:21;19.20;99.90
24148;DHT22;12309;51.450;-2.624;2022-09-20T09:52:15;19.30;99.90
24148;DHT22;12309;51.450;-2.624;2022-09-20T09:54:52;19.50;99.90
24148;DHT22;12309;51.450;-2.624;2022-09-20T09:57:45;19.40;99.90
24148;DHT22;12309;51.450;-2.624;2022-09-20T10:00:20;19.60;99.90
24148;DHT22;12309;51.450;-2.624;2022-09-20T10:14:00;19.20;99.90
24148;DHT22;12309;51.450;-2.624;2022-09-20T10:21:46;19.50;99.90
24148;DHT22;12309;51.450;-2.624;2022-09-20T10:32:32;19.80;99.90
24148;DHT22;12309;51.450;-2.624;2022-09-20T10:35:18;20.10;99.90
24148;DHT22;12309;51.450;-2.624;2022-09-20T10:38:12;20.20;99.90
24148;DHT22;12309;51.450;-2.624;2022-09-20T10:43:56;21.10;99.90
24148;DHT22;12309;51.450;-2.624;2022-09-20T10:47:07;22.20;99.90
24148;DHT22;12309;51.450;-2.624;2022-09-20T11:01:10;23.80;99.90
24148;DHT22;12309;51.450;-2.624;2022-09-20T11:08:43;24.00;99.90
24148;DHT22;12309;51.450;-2.624;2022-09-20T11:11:38;23.90;99.90
24148;DHT22;12309;51.450;-2.624;2022-09-20T11:16:39;24.80;99.90
24148;DHT22;12309;51.450;-2.624;2022-09-20T11:22:17;25.20;99.90
24148;DHT22;12309;51.450;-2.624;2022-09-20T11:30:21;24.90;99.90
24148;DHT22;12309;51.450;-2.624;2022-09-20T11:32:59;24.80;99.90
24148;DHT22;12309;51.450;-2.624;2022-09-20T11:35:35;24.80;99.90
24148;DHT22;12309;51.450;-2.624;2022-09-20T11:38:13;24.70;99.90
24148;DHT22;12309;51.450;-2.624;2022-09-20T11:43:25;25.00;99.90
24148;DHT22;12309;51.450;-2.624;2022-09-20T11:45:55;24.70;99.90
24148;DHT22;12309;51.450;-2.624;2022-09-20T11:48:27;24.60;99.90
24148;DHT22;12309;51.450;-2.624;2022-09-20T11:56:52;27.10;99.90
24148;DHT22;12309;51.450;-2.624;2022-09-20T11:59:40;28.40;99.90
24148;DHT22;12309;51.450;-2.624;2022-09-20T12:02:21;28.50;99.90
24148;DHT22;12309;51.450;-2.624;2022-09-20T12:04:48;28.70;99.90
24148;DHT22;12309;51.450;-2.624;2022-09-20T12:09:53;29.70;99.90
24148;DHT22;12309;51.450;-2.624;2022-09-20T12:14:59;29.60;99.90
24148;DHT22;12309;51.450;-2.624;2022-09-20T12:42:02;22.80;99.90
24148;DHT22;12309;51.450;-2.624;2022-09-20T12:49:55;23.00;99.90
24148;DHT22;12309;51.450;-2.624;2022-09-20T13:03:33;23.20;99.90
24148;DHT22;12309;51.450;-2.624;2022-09-20T13:09:02;23.30;99.90
24148;DHT22;12309;51.450;-2.624;2022-09-20T13:11:48;22.90;99.90
24148;DHT22;12309;51.450;-2.624;2022-09-20T13:14:21;22.90;99.90
24148;DHT22;12309;51.450;-2.624;2022-09-20T13:19:26;23.00;99.90
24148;DHT22;12309;51.450;-2.624;2022-09-20T13:22:00;23.00;99.90
24148;DHT22;12309;51.450;-2.624;2022-09-20T13:24:30;22.80;99.90
24148;DHT22;12309;51.450;-2.624;2022-09-20T13:27:02;22.70;99.90
24148;DHT22;12309;51.450;-2.624;2022-09-20T13:29:38;22.50;99.90
24148;DHT22;12309;51.450;-2.624;2022-09-20T13:32:19;22.50;99.90
24148;DHT22;12309;51.450;-2.624;2022-09-20T13:35:24;22.60;99.90
24148;DHT22;12309;51.450;-2.624;2022-09-20T13:38:04;22.50;99.90
24148;DHT22;12309;51.450;-2.624;2022-09-20T13:40:42;22.40;99.90
24148;DHT22;12309;51.450;-2.624;2022-09-20T13:43:28;22.30;99.90
24148;DHT22;12309;51.450;-2.624;2022-09-20T13:46:05;22.20;99.90
24148;DHT22;12309;51.450;-2.624;2022-09-20T13:48:30;22.10;99.90
24148;DHT22;12309;51.450;-2.624;2022-09-20T13:50:57;22.10;99.90
24148;DHT22;12309;51.450;-2.624;2022-09-20T13:53:25;22.20;99.90
24148;DHT22;12309;51.450;-2.624;2022-09-20T13:55:51;22.20;99.90
24148;DHT22;12309;51.450;-2.624;2022-09-20T13:58:31;22.20;99.90
24148;DHT22;12309;51.450;-2.624;2022-09-20T14:01:03;22.10;99.90
24148;DHT22;12309;51.450;-2.624;2022-09-20T14:03:32;22.00;99.90
24148;DHT22;12309;51.450;-2.624;2022-09-20T14:06:02;21.80;99.90
24148;DHT22;12309;51.450;-2.624;2022-09-20T14:11:05;21.90;99.90
24148;DHT22;12309;51.450;-2.624;2022-09-20T14:13:34;22.10;99.90
24148;DHT22;12309;51.450;-2.624;2022-09-20T14:16:02;22.20;99.90
24148;DHT22;12309;51.450;-2.624;2022-09-20T14:18:28;22.60;99.90
24148;DHT22;12309;51.450;-2.624;2022-09-20T14:20:54;22.60;99.90
24148;DHT22;12309;51.450;-2.624;2022-09-20T14:23:24;22.80;99.90
24148;DHT22;12309;51.450;-2.624;2022-09-20T14:28:41;23.40;99.90
24148;DHT22;12309;51.450;-2.624;2022-09-20T14:31:15;24.30;99.90
24148;DHT22;12309;51.450;-2.624;2022-09-20T14:33:45;24.60;99.90
24148;DHT22;12309;51.450;-2.624;2022-09-20T14:36:18;24.60;99.90
24148;DHT22;12309;51.450;-2.624;2022-09-20T14:38:46;24.40;99.90
24148;DHT22;12309;51.450;-2.624;2022-09-20T14:41:20;24.00;99.90
24148;DHT22;12309;51.450;-2.624;2022-09-20T14:43:56;23.60;99.90
24148;DHT22;12309;51.450;-2.624;2022-09-20T14:46:29;23.30;99.90
24148;DHT22;12309;51.450;-2.624;2022-09-20T14:51:53;22.90;99.90
24148;DHT22;12309;51.450;-2.624;2022-09-20T14:54:38;22.70;99.90
24148;DHT22;12309;51.450;-2.624;2022-09-20T14:57:05;22.40;99.90
24148;DHT22;12309;51.450;-2.624;2022-09-20T14:59:41;22.20;99.90
24148;DHT22;12309;51.450;-2.624;2022-09-20T15:04:34;21.80;99.90
24148;DHT22;12309;51.450;-2.624;2022-09-20T15:07:04;21.70;99.90
24148;DHT22;12309;51.450;-2.624;2022-09-20T15:09:31;21.40;99.90
24148;DHT22;12309;51.450;-2.624;2022-09-20T15:12:05;21.30;99.90
24148;DHT22;12309;51.450;-2.624;2022-09-20T15:14:31;21.10;99.90
24148;DHT22;12309;51.450;-2.624;2022-09-20T15:16:58;20.10;99.90
24148;DHT22;12309;51.450;-2.624;2022-09-20T15:21:51;21.10;99.90
24148;DHT22;12309;51.450;-2.624;2022-09-20T15:26:43;20.90;99.90
24148;DHT22;12309;51.450;-2.624;2022-09-20T15:29:14;21.00;99.90
24148;DHT22;12309;51.450;-2.624;2022-09-20T15:31:40;20.90;99.90
24148;DHT22;12309;51.450;-2.624;2022-09-20T15:34:06;20.80;99.90
24148;DHT22;12309;51.450;-2.624;2022-09-20T15:36:32;20.80;99.90
24148;DHT22;12309;51.450;-2.624;2022-09-20T15:38:58;20.80;99.90
24148;DHT22;12309;51.450;-2.624;2022-09-20T15:41:24;20.90;99.90
24148;DHT22;12309;51.450;-2.624;2022-09-20T15:43:49;20.80;99.90
24148;DHT22;12309;51.450;-2.624;2022-09-20T15:46:20;20.90;99.90
24148;DHT22;12309;51.450;-2.624;2022-09-20T15:48:47;20.80;99.90
24148;DHT22;12309;51.450;-2.624;2022-09-20T15:51:13;20.80;99.90
24148;DHT22;12309;51.450;-2.624;2022-09-20T15:53:45;20.90;99.90
24148;DHT22;12309;51.450;-2.624;2022-09-20T15:56:20;21.00;99.90
24148;DHT22;12309;51.450;-2.624;2022-09-20T15:58:51;21.10;99.90
24148;DHT22;12309;51.450;-2.624;2022-09-20T16:01:24;21.50;99.90
24148;DHT22;12309;51.450;-2.624;2022-09-20T16:03:50;23.50;99.90
24148;DHT22;12309;51.450;-2.624;2022-09-20T16:06:16;23.40;99.90
24148;DHT22;12309;51.450;-2.624;2022-09-20T16:08:42;24.00;99.90
24148;DHT22;12309;51.450;-2.624;2022-09-20T16:11:11;25.40;99.90
24148;DHT22;12309;51.450;-2.624;2022-09-20T16:13:37;25.30;99.90
24148;DHT22;12309;51.450;-2.624;2022-09-20T16:16:05;29.50;99.90
24148;DHT22;12309;51.450;-2.624;2022-09-20T16:18:31;25.90;99.90
24148;DHT22;12309;51.450;-2.624;2022-09-20T16:21:17;26.30;99.90
24148;DHT22;12309;51.450;-2.624;2022-09-20T16:23:48;26.40;99.90
24148;DHT22;12309;51.450;-2.624;2022-09-20T16:26:15;26.60;99.90
24148;DHT22;12309;51.450;-2.624;2022-09-20T16:28:41;26.60;99.90
24148;DHT22;12309;51.450;-2.624;2022-09-20T16:31:44;26.40;99.90
24148;DHT22;12309;51.450;-2.624;2022-09-20T16:36:48;26.60;99.90
24148;DHT22;12309;51.450;-2.624;2022-09-20T16:39:15;26.40;99.90
24148;DHT22;12309;51.450;-2.624;2022-09-20T16:41:43;26.20;99.90
24148;DHT22;12309;51.450;-2.624;2022-09-20T16:44:10;26.10;99.90
24148;DHT22;12309;51.450;-2.624;2022-09-20T16:46:35;26.10;99.90
24148;DHT22;12309;51.450;-2.624;2022-09-20T16:49:03;26.00;99.90
24148;DHT22;12309;51.450;-2.624;2022-09-20T16:51:31;25.60;99.90
24148;DHT22;12309;51.450;-2.624;2022-09-20T16:54:03;25.40;99.90
24148;DHT22;12309;51.450;-2.624;2022-09-20T16:56:31;25.20;99.90
24148;DHT22;12309;51.450;-2.624;2022-09-20T16:59:01;25.20;99.90
24148;DHT22;12309;51.450;-2.624;2022-09-20T17:01:28;25.20;99.90
24148;DHT22;12309;51.450;-2.624;2022-09-20T17:03:54;25.60;99.90
24148;DHT22;12309;51.450;-2.624;2022-09-20T17:06:21;25.60;99.90
24148;DHT22;12309;51.450;-2.624;2022-09-20T17:08:51;25.20;99.90
24148;DHT22;12309;51.450;-2.624;2022-09-20T17:11:19;24.00;99.90
24148;DHT22;12309;51.450;-2.624;2022-09-20T17:13:49;24.10;99.90
24148;DHT22;12309;51.450;-2.624;2022-09-20T17:16:30;23.50;99.90
24148;DHT22;12309;51.450;-2.624;2022-09-20T17:18:57;23.40;99.90
24148;DHT22;12309;51.450;-2.624;2022-09-20T17:21:24;23.30;99.90
24148;DHT22;12309;51.450;-2.624;2022-09-20T17:23:53;23.60;99.90
24148;DHT22;12309;51.450;-2.624;2022-09-20T17:28:52;23.20;99.90
24148;DHT22;12309;51.450;-2.624;2022-09-20T17:31:23;22.70;99.90
24148;DHT22;12309;51.450;-2.624;2022-09-20T17:33:49;22.10;99.90
24148;DHT22;12309;51.450;-2.624;2022-09-20T17:36:17;21.50;99.90
24148;DHT22;12309;51.450;-2.624;2022-09-20T17:38:45;20.90;99.90
24148;DHT22;12309;51.450;-2.624;2022-09-20T17:41:12;20.20;99.90
24148;DHT22;12309;51.450;-2.624;2022-09-20T17:43:40;20.20;99.90
24148;DHT22;12309;51.450;-2.624;2022-09-20T17:46:24;19.90;99.90
24148;DHT22;12309;51.450;-2.624;2022-09-20T17:49:03;19.60;99.90
24148;DHT22;12309;51.450;-2.624;2022-09-20T17:51:30;19.20;99.90
24148;DHT22;12309;51.450;-2.624;2022-09-20T17:53:56;18.90;99.90
24148;DHT22;12309;51.450;-2.624;2022-09-20T17:56:23;18.80;99.90
24148;DHT22;12309;51.450;-2.624;2022-09-20T17:58:57;18.60;99.90
24148;DHT22;12309;51.450;-2.624;2022-09-20T18:01:23;18.40;99.90
24148;DHT22;12309;51.450;-2.624;2022-09-20T18:03:50;18.20;99.90
24148;DHT22;12309;51.450;-2.624;2022-09-20T18:06:17;18.10;99.90
24148;DHT22;12309;51.450;-2.624;2022-09-20T18:08:48;18.00;99.90
24148;DHT22;12309;51.450;-2.624;2022-09-20T18:11:15;18.10;99.90
24148;DHT22;12309;51.450;-2.624;2022-09-20T18:13:42;17.70;99.90
24148;DHT22;12309;51.450;-2.624;2022-09-20T18:16:12;17.60;99.90
24148;DHT22;12309;51.450;-2.624;2022-09-20T18:18:39;17.50;99.90
24148;DHT22;12309;51.450;-2.624;2022-09-20T18:21:16;17.40;99.90
24148;DHT22;12309;51.450;-2.624;2022-09-20T18:23:43;17.20;99.90
24148;DHT22;12309;51.450;-2.624;2022-09-20T18:26:11;17.10;99.90
24148;DHT22;12309;51.450;-2.624;2022-09-20T18:28:53;17.00;99.90
24148;DHT22;12309;51.450;-2.624;2022-09-20T18:31:22;16.90;99.90
24148;DHT22;12309;51.450;-2.624;2022-09-20T18:33:51;16.70;99.90
24148;DHT22;12309;51.450;-2.624;2022-09-20T18:36:17;16.70;99.90
24148;DHT22;12309;51.450;-2.624;2022-09-20T18:38:46;16.60;99.90
24148;DHT22;12309;51.450;-2.624;2022-09-20T18:41:11;16.50;99.90
24148;DHT22;12309;51.450;-2.624;2022-09-20T18:43:39;16.30;99.90
24148;DHT22;12309;51.450;-2.624;2022-09-20T18:46:11;16.40;99.90
24148;DHT22;12309;51.450;-2.624;2022-09-20T18:48:37;16.10;99.90
24148;DHT22;12309;51.450;-2.624;2022-09-20T18:51:07;16.10;99.90
24148;DHT22;12309;51.450;-2.624;2022-09-20T18:53:35;15.90;99.90
24148;DHT22;12309;51.450;-2.624;2022-09-20T18:58:32;15.70;99.90
24148;DHT22;12309;51.450;-2.624;2022-09-20T19:07:06;15.50;99.90
24148;DHT22;12309;51.450;-2.624;2022-09-20T19:12:19;15.30;99.90
24148;DHT22;12309;51.450;-2.624;2022-09-20T19:17:18;15.50;99.90
24148;DHT22;12309;51.450;-2.624;2022-09-20T19:19:48;15.60;99.90
24148;DHT22;12309;51.450;-2.624;2022-09-20T19:23:09;15.60;99.90
24148;DHT22;12309;51.450;-2.624;2022-09-20T19:28:02;15.70;99.90
24148;DHT22;12309;51.450;-2.624;2022-09-20T19:30:28;15.80;99.90
24148;DHT22;12309;51.450;-2.624;2022-09-20T19:32:54;15.70;99.90
24148;DHT22;12309;51.450;-2.624;2022-09-20T19:35:26;15.70;99.90
24148;DHT22;12309;51.450;-2.624;2022-09-20T19:48:50;15.60;99.90
24148;DHT22;12309;51.450;-2.624;2022-09-20T19:51:19;15.60;99.90
24148;DHT22;12309;51.450;-2.624;2022-09-20T19:53:46;15.70;99.90
24148;DHT22;12309;51.450;-2.624;2022-09-20T19:56:37;15.70;99.90
24148;DHT22;12309;51.450;-2.624;2022-09-20T19:59:08;15.70;99.90
24148;DHT22;12309;51.450;-2.624;2022-09-20T20:01:34;15.60;99.90
24148;DHT22;12309;51.450;-2.624;2022-09-20T20:04:00;15.60;99.90
24148;DHT22;12309;51.450;-2.624;2022-09-20T20:06:49;15.50;99.90
24148;DHT22;12309;51.450;-2.624;2022-09-20T20:09:30;15.60;99.90
24148;DHT22;12309;51.450;-2.624;2022-09-20T20:12:12;16.30;99.90
24148;DHT22;12309;51.450;-2.624;2022-09-20T20:15:00;15.50;99.90
24148;DHT22;12309;51.450;-2.624;2022-09-20T20:17:43;15.40;99.90
24148;DHT22;12309;51.450;-2.624;2022-09-20T20:20:25;15.30;99.90
24148;DHT22;12309;51.450;-2.624;2022-09-20T20:26:16;15.20;99.90
24148;DHT22;12309;51.450;-2.624;2022-09-20T20:28:43;15.10;99.90
24148;DHT22;12309;51.450;-2.624;2022-09-20T20:31:09;14.90;99.90
24148;DHT22;12309;51.450;-2.624;2022-09-20T20:33:37;15.10;99.90
24148;DHT22;12309;51.450;-2.624;2022-09-20T20:36:03;14.80;99.90
24148;DHT22;12309;51.450;-2.624;2022-09-20T20:38:30;14.70;99.90
24148;DHT22;12309;51.450;-2.624;2022-09-20T20:41:10;14.70;99.90
24148;DHT22;12309;51.450;-2.624;2022-09-20T20:43:38;14.70;99.90
24148;DHT22;12309;51.450;-2.624;2022-09-20T20:46:07;14.70;99.90
24148;DHT22;12309;51.450;-2.624;2022-09-20T20:48:33;14.70;99.90
24148;DHT22;12309;51.450;-2.624;2022-09-20T20:51:11;14.70;99.90
24148;DHT22;12309;51.450;-2.624;2022-09-20T20:53:43;14.80;99.90
24148;DHT22;12309;51.450;-2.624;2022-09-20T20:56:14;14.60;99.90
24148;DHT22;12309;51.450;-2.624;2022-09-20T20:58:42;14.60;99.90
24148;DHT22;12309;51.450;-2.624;2022-09-20T21:03:47;14.70;99.90
24148;DHT22;12309;51.450;-2.624;2022-09-20T21:06:13;14.60;99.90
24148;DHT22;12309;51.450;-2.624;2022-09-20T21:08:43;14.60;99.90
24148;DHT22;12309;51.450;-2.624;2022-09-20T21:11:21;14.50;99.90
24148;DHT22;12309;51.450;-2.624;2022-09-20T21:13:54;14.50;99.90
24148;DHT22;12309;51.450;-2.624;2022-09-20T21:16:23;14.40;99.90
24148;DHT22;12309;51.450;-2.624;2022-09-20T21:18:49;14.40;99.90
24148;DHT22;12309;51.450;-2.624;2022-09-20T21:21:24;14.40;99.90
24148;DHT22;12309;51.450;-2.624;2022-09-20T21:23:53;14.30;99.90
24148;DHT22;12309;51.450;-2.624;2022-09-20T21:26:20;14.30;99.90
24148;DHT22;12309;51.450;-2.624;2022-09-20T21:28:55;14.30;99.90
24148;DHT22;12309;51.450;-2.624;2022-09-20T21:31:24;14.30;99.90
24148;DHT22;12309;51.450;-2.624;2022-09-20T21:33:51;14.30;99.90
24148;DHT22;12309;51.450;-2.624;2022-09-20T21:36:19;14.30;99.90
24148;DHT22;12309;51.450;-2.624;2022-09-20T21:38:45;14.30;99.90
24148;DHT22;12309;51.450;-2.624;2022-09-20T21:41:23;14.40;99.90
24148;DHT22;12309;51.450;-2.624;2022-09-20T21:43:51;14.40;99.90
24148;DHT22;12309;51.450;-2.624;2022-09-20T21:46:25;14.40;99.90
24148;DHT22;12309;51.450;-2.624;2022-09-20T21:48:58;14.40;99.90
24148;DHT22;12309;51.450;-2.624;2022-09-20T21:51:26;14.30;99.90